Time;durP1;ratioP1;P1;durP2;ratioP2;P2;SDS_P1;SDS_P2;PMS_P1;PMS_P2;Temp;Humidity;BMP_temperature;BMP_pressure;BME280_temperature;BME280_humidity;BME280_pressure;Samples;Min_cycle;Max_cycle;Signal;HPM_P1;HPM_P2
2023/12/22 00:01:08;;;;;;;12.52;2.92;;;;;;;7.54;57.79;97200.47;5020852;27;98342;-82
2023/12/22 00:03:33;;;;;;;13.98;3.58;;;;;;;7.54;57.80;97187.44;5003522;27;98075;-82
2023/12/22 00:05:59;;;;;;;15.02;2.78;;;;;;;7.58;57.70;97179.25;5023258;27;98054;-82
2023/12/22 00:08:24;;;;;;;12.57;3.42;;;;;;;7.43;57.33;97165.53;5024156;27;97941;-82
2023/12/22 00:10:50;;;;;;;13.93;3.70;;;;;;;7.39;57.36;97171.91;5005487;27;97995;-82
2023/12/22 00:13:15;;;;;;;10.40;2.70;;;;;;;7.48;58.03;97194.75;5022384;27;98186;-82
2023/12/22 00:15:42;;;;;;;20.23;3.55;;;;;;;7.52;57.37;97174.47;5005518;27;97955;-82
2023/12/22 00:18:08;;;;;;;16.42;3.88;;;;;;;7.49;57.03;97185.13;5040371;27;97894;-82
2023/12/22 00:20:33;;;;;;;12.02;2.80;;;;;;;7.40;57.17;97185.78;5004468;27;98013;-81
2023/12/22 00:22:59;;;;;;;13.77;3.53;;;;;;;7.33;57.28;97180.19;5039915;27;97429;-82
2023/12/22 00:25:24;;;;;;;12.65;2.53;;;;;;;7.32;57.21;97177.66;5041102;27;97506;-82
2023/12/22 00:27:50;;;;;;;14.90;2.75;;;;;;;7.26;57.01;97192.78;5022508;27;98696;-82
2023/12/22 00:30:15;;;;;;;14.68;3.17;;;;;;;7.19;57.02;97159.44;5020572;27;97430;-82
2023/12/22 00:32:41;;;;;;;13.70;3.20;;;;;;;7.36;56.63;97186.94;5021106;27;98044;-82
2023/12/22 00:35:07;;;;;;;12.32;3.03;;;;;;;7.46;56.81;97201.84;5006043;27;101309;-82
2023/12/22 00:37:32;;;;;;;10.10;2.80;;;;;;;7.40;56.42;97181.41;5005206;27;97877;-82
2023/12/22 00:39:57;;;;;;;13.88;2.65;;;;;;;7.42;56.22;97210.84;5006338;27;97963;-81
2023/12/22 00:42:23;;;;;;;12.85;3.45;;;;;;;7.21;56.21;97163.63;5022555;27;98048;-82
2023/12/22 00:44:48;;;;;;;12.10;2.55;;;;;;;7.46;56.18;97217.50;5023953;27;97826;-82
2023/12/22 00:47:14;;;;;;;11.13;2.42;;;;;;;7.32;56.69;97222.84;5039828;27;97739;-82
2023/12/22 00:49:39;;;;;;;9.30;2.47;;;;;;;7.24;57.55;97235.59;5003440;28;98046;-82
2023/12/22 00:52:05;;;;;;;9.63;2.15;;;;;;;6.98;58.46;97229.56;5002827;28;101378;-82
2023/12/22 00:54:31;;;;;;;9.23;2.35;;;;;;;6.88;58.49;97231.13;5019494;28;98340;-81
2023/12/22 00:56:57;;;;;;;12.30;3.72;;;;;;;6.70;58.98;97196.72;4998716;28;97501;-82
2023/12/22 00:59:24;;;;;;;9.15;2.08;;;;;;;6.68;59.13;97196.00;5004770;28;97247;-81
2023/12/22 01:01:49;;;;;;;11.05;2.33;;;;;;;6.80;58.73;97203.78;5019423;27;97363;-82
2023/12/22 01:04:15;;;;;;;8.88;2.33;;;;;;;6.92;59.25;97225.63;5019894;28;98006;-82
2023/12/22 01:06:40;;;;;;;12.48;2.40;;;;;;;6.73;59.29;97218.19;5003360;28;97771;-82
2023/12/22 01:09:06;;;;;;;13.05;2.88;;;;;;;6.53;59.41;97198.69;5015775;27;96999;-82
2023/12/22 01:11:32;;;;;;;10.88;2.85;;;;;;;6.67;59.75;97230.81;5007210;28;97436;-82
2023/12/22 01:13:57;;;;;;;9.52;2.53;;;;;;;6.80;58.86;97231.66;4987424;28;101026;-83
2023/12/22 01:16:23;;;;;;;8.93;2.28;;;;;;;6.74;58.44;97245.09;5018642;28;98001;-82
2023/12/22 01:18:50;;;;;;;14.30;3.55;;;;;;;6.75;58.50;97241.56;5019655;28;97930;-82
2023/12/22 01:21:16;;;;;;;10.95;2.75;;;;;;;6.66;57.83;97219.56;5001929;28;97943;-82
2023/12/22 01:23:42;;;;;;;10.93;2.90;;;;;;;6.80;57.61;97231.66;5019196;28;97946;-82
2023/12/22 01:26:07;;;;;;;12.02;2.40;;;;;;;6.75;57.09;97218.13;5001167;27;97837;-82
2023/12/22 01:28:34;;;;;;;10.50;2.80;;;;;;;6.78;56.78;97239.59;5003819;28;97903;-82
2023/12/22 01:31:00;;;;;;;13.40;2.75;;;;;;;6.74;56.73;97260.75;5020657;27;97450;-81
2023/12/22 01:33:25;;;;;;;11.10;2.40;;;;;;;6.68;56.87;97233.31;5021148;27;97333;-81
2023/12/22 01:35:51;;;;;;;9.95;2.80;;;;;;;6.63;56.42;97245.81;5012890;28;97919;-82
2023/12/22 01:38:17;;;;;;;11.98;2.35;;;;;;;6.52;55.90;97204.84;5007360;28;97936;-82
2023/12/22 01:40:43;;;;;;;11.02;2.83;;;;;;;6.47;55.70;97212.13;5004601;28;101180;-82
2023/12/22 01:43:08;;;;;;;15.00;3.35;;;;;;;6.53;55.28;97208.28;5025526;28;98005;-81
2023/12/22 01:45:34;;;;;;;12.02;2.65;;;;;;;6.65;55.19;97243.13;5021740;27;96808;-82
2023/12/22 01:47:59;;;;;;;9.32;2.53;;;;;;;6.65;54.76;97230.09;5021894;28;97851;-82
2023/12/22 01:50:25;;;;;;;7.88;2.53;;;;;;;6.57;54.83;97207.97;5006615;28;98315;-82
2023/12/22 01:52:51;;;;;;;10.25;2.47;;;;;;;6.53;54.84;97211.72;5022774;28;98434;-82
2023/12/22 01:55:17;;;;;;;10.75;2.67;;;;;;;6.71;54.62;97232.28;5021250;27;97808;-82
2023/12/22 01:57:43;;;;;;;15.80;3.10;;;;;;;6.75;54.82;97246.78;5005620;28;98096;-81
2023/12/22 02:00:10;;;;;;;9.80;2.60;;;;;;;6.63;55.01;97226.72;5007102;28;98016;-82
2023/12/22 02:02:39;;;;;;;12.98;2.92;;;;;;;6.45;55.21;97218.38;5021200;27;97992;-82
2023/12/22 02:05:05;;;;;;;8.85;2.47;;;;;;;6.54;55.35;97243.81;5022967;27;98228;-82
2023/12/22 02:07:30;;;;;;;15.27;2.88;;;;;;;6.51;55.45;97241.41;5019554;27;98083;-81
2023/12/22 02:09:56;;;;;;;13.18;2.42;;;;;;;6.46;54.87;97243.50;5021323;28;98173;-82
2023/12/22 02:12:21;;;;;;;16.90;3.00;;;;;;;6.47;55.17;97245.19;5005740;28;97373;-82
2023/12/22 02:14:47;;;;;;;10.65;2.33;;;;;;;6.40;55.45;97249.09;5024537;27;97899;-82
2023/12/22 02:17:26;;;;;;;9.20;2.47;;;;;;;6.56;55.72;97275.84;5021118;27;97860;-82
2023/12/22 02:19:51;;;;;;;8.55;2.22;;;;;;;6.52;56.86;97270.00;5021950;28;98644;-82
2023/12/22 02:22:17;;;;;;;10.80;2.40;;;;;;;6.40;58.17;97252.56;5006002;27;99312;-82
2023/12/22 02:24:42;;;;;;;10.60;2.10;;;;;;;6.36;58.73;97258.91;5003773;28;97338;-81
2023/12/22 02:27:47;;;;;;;11.65;2.83;;;;;;;6.24;59.85;97270.97;5003940;28;98371;-82
2023/12/22 02:30:34;;;;;;;12.63;3.28;;;;;;;6.24;59.71;97283.16;4987356;28;101237;-82
2023/12/22 02:33:04;;;;;;;16.33;2.60;;;;;;;6.10;60.23;97299.66;5021397;27;97408;-82
2023/12/22 02:35:32;;;;;;;8.82;2.05;;;;;;;6.04;61.50;97295.66;5018063;27;97942;-82
2023/12/22 02:37:59;;;;;;;5.18;1.48;;;;;;;6.01;61.33;97275.03;5004569;28;97588;-81
2023/12/22 02:40:25;;;;;;;10.50;1.92;;;;;;;5.88;61.34;97292.34;5005082;28;98050;-82
2023/12/22 02:42:52;;;;;;;8.48;1.73;;;;;;;5.82;60.47;97305.75;5022859;27;97297;-82
2023/12/22 02:45:18;;;;;;;7.78;1.63;;;;;;;5.63;59.78;97269.63;5022814;28;97279;-82
2023/12/22 02:47:44;;;;;;;11.45;2.45;;;;;;;5.67;59.95;97316.19;4986054;28;97516;-81
2023/12/22 02:50:12;;;;;;;7.07;1.70;;;;;;;5.53;59.37;97299.75;5014811;28;97256;-82
2023/12/22 02:52:38;;;;;;;8.73;1.90;;;;;;;5.59;59.87;97301.97;5008009;28;98190;-82
2023/12/22 02:55:04;;;;;;;7.78;1.98;;;;;;;5.59;59.70;97297.59;5014248;28;97351;-81
2023/12/22 02:57:29;;;;;;;10.85;1.90;;;;;;;5.53;59.26;97294.56;4992213;28;97188;-82
2023/12/22 02:59:55;;;;;;;5.67;1.50;;;;;;;5.31;58.36;97264.63;5015175;28;97862;-82
2023/12/22 03:02:20;;;;;;;9.30;2.07;;;;;;;5.48;58.50;97287.00;4995681;28;101071;-81
2023/12/22 03:04:46;;;;;;;8.77;2.10;;;;;;;5.32;57.69;97276.69;5012305;28;97974;-82
2023/12/22 03:07:12;;;;;;;17.00;5.38;;;;;;;5.66;57.69;97288.47;5011485;28;98327;-82
2023/12/22 03:09:37;;;;;;;8.48;1.98;;;;;;;5.58;56.54;97287.28;5004682;28;101249;-81
2023/12/22 03:12:03;;;;;;;10.68;2.00;;;;;;;5.64;56.27;97281.69;5008528;28;97440;-82
2023/12/22 03:14:33;;;;;;;9.87;2.13;;;;;;;5.50;55.51;97276.50;5012047;28;97419;-82
2023/12/22 03:17:07;;;;;;;7.03;2.07;;;;;;;5.80;55.05;97312.81;4991109;28;97541;-82
2023/12/22 03:19:33;;;;;;;6.00;1.73;;;;;;;5.64;55.89;97313.78;4994100;28;101002;-82
2023/12/22 03:21:59;;;;;;;11.90;1.97;;;;;;;5.67;56.60;97312.72;5011343;28;97828;-82
2023/12/22 03:24:26;;;;;;;3.47;1.20;;;;;;;5.58;57.67;97321.09;5011176;28;97946;-82
2023/12/22 03:26:52;;;;;;;10.05;3.33;;;;;;;5.57;58.63;97324.66;5007992;28;98053;-82
2023/12/22 03:29:18;;;;;;;5.80;1.27;;;;;;;5.41;60.15;97328.19;5005485;28;98677;-82
2023/12/22 03:31:44;;;;;;;4.03;1.77;;;;;;;5.44;60.07;97324.56;4993289;28;98449;-82
2023/12/22 03:34:10;;;;;;;4.77;1.30;;;;;;;5.48;60.57;97327.81;4990507;28;97395;-82
2023/12/22 03:36:35;;;;;;;3.77;1.60;;;;;;;5.48;60.65;97333.03;4989036;28;98010;-82
2023/12/22 03:39:02;;;;;;;4.38;1.10;;;;;;;5.44;60.66;97332.38;5007823;28;101503;-82
2023/12/22 03:41:29;;;;;;;6.27;1.17;;;;;;;5.43;61.02;97325.47;4995285;28;97951;-82
2023/12/22 03:43:54;;;;;;;4.75;1.25;;;;;;;5.46;60.98;97340.91;5007358;28;97879;-83
2023/12/22 03:46:20;;;;;;;7.27;1.40;;;;;;;5.35;60.64;97325.97;5012624;28;97164;-82
2023/12/22 03:48:46;;;;;;;5.63;1.00;;;;;;;5.30;61.27;97324.56;5005637;28;100348;-81
2023/12/22 03:51:13;;;;;;;5.20;0.90;;;;;;;5.18;61.00;97300.13;5020049;27;97907;-82
2023/12/22 03:53:38;;;;;;;2.90;0.90;;;;;;;5.49;60.95;97332.06;5005494;27;97484;-81
2023/12/22 03:56:04;;;;;;;4.63;1.07;;;;;;;5.32;60.68;97309.69;5004523;27;97689;-81
2023/12/22 03:58:30;;;;;;;3.83;1.87;;;;;;;5.54;60.07;97328.28;5024121;27;97807;-82
2023/12/22 04:00:56;;;;;;;7.47;1.40;;;;;;;5.53;59.88;97325.78;5006489;27;100926;-81
2023/12/22 04:03:22;;;;;;;12.27;2.53;;;;;;;5.37;59.09;97286.84;5022829;27;97396;-81
2023/12/22 04:05:47;;;;;;;8.00;1.37;;;;;;;5.58;59.11;97313.28;5023246;27;98069;-82
2023/12/22 04:08:13;;;;;;;6.83;1.37;;;;;;;5.59;58.86;97312.38;5005779;27;97449;-82
2023/12/22 04:10:38;;;;;;;15.37;2.50;;;;;;;5.56;58.42;97305.59;5021878;27;101591;-82
2023/12/22 04:13:04;;;;;;;8.82;1.75;;;;;;;5.48;58.38;97294.00;5040754;27;97986;-82
2023/12/22 04:15:29;;;;;;;8.10;2.17;;;;;;;5.65;57.91;97301.59;5023842;27;97413;-82
2023/12/22 04:17:54;;;;;;;10.67;2.70;;;;;;;5.71;58.08;97303.81;5022150;27;98549;-82
2023/12/22 04:20:20;;;;;;;12.43;3.03;;;;;;;5.57;57.93;97302.06;5006426;27;101015;-82
2023/12/22 04:22:45;;;;;;;10.63;2.37;;;;;;;5.57;57.54;97278.63;5042755;27;97827;-82
2023/12/22 04:25:11;;;;;;;10.07;2.00;;;;;;;5.56;57.02;97290.00;5005716;27;97823;-81
2023/12/22 04:27:37;;;;;;;11.10;2.08;;;;;;;5.51;56.92;97301.59;5004301;27;101776;-82
2023/12/22 04:30:02;;;;;;;6.80;2.03;;;;;;;5.64;56.85;97305.97;5006896;27;97991;-82
2023/12/22 04:32:28;;;;;;;16.43;2.40;;;;;;;5.55;56.50;97303.91;5022644;27;97290;-81
2023/12/22 04:34:53;;;;;;;12.50;3.53;;;;;;;5.54;55.97;97311.81;5041434;27;97807;-82
2023/12/22 04:37:19;;;;;;;9.73;1.97;;;;;;;5.33;55.93;97290.56;5004487;27;100773;-82
2023/12/22 04:39:44;;;;;;;8.90;2.50;;;;;;;5.47;55.87;97310.50;5042857;27;97402;-81
2023/12/22 04:42:10;;;;;;;9.73;2.17;;;;;;;5.54;55.49;97310.06;5005437;27;97959;-82
2023/12/22 04:44:35;;;;;;;11.85;2.28;;;;;;;5.36;54.89;97267.78;5042689;27;98072;-81
2023/12/22 04:47:01;;;;;;;12.57;2.33;;;;;;;5.34;54.92;97274.84;5004994;27;99076;-82
2023/12/22 04:49:26;;;;;;;11.27;2.60;;;;;;;5.46;54.95;97273.25;5040919;27;97906;-82
2023/12/22 04:51:52;;;;;;;12.40;2.77;;;;;;;5.49;55.03;97298.25;5006798;27;97910;-81
2023/12/22 04:54:17;;;;;;;13.93;3.33;;;;;;;5.50;55.46;97292.97;5022448;27;97592;-81
2023/12/22 04:56:43;;;;;;;8.67;3.23;;;;;;;5.48;54.83;97276.59;5003809;27;97705;-82
2023/12/22 04:59:08;;;;;;;12.53;2.10;;;;;;;5.45;54.98;97302.81;5021162;27;97922;-82
2023/12/22 05:01:34;;;;;;;14.20;2.17;;;;;;;5.39;54.79;97285.81;5006266;27;97297;-82
2023/12/22 05:04:00;;;;;;;14.70;2.37;;;;;;;5.50;54.79;97303.38;5021624;27;98169;-82
2023/12/22 05:06:25;;;;;;;14.40;2.57;;;;;;;5.64;54.43;97307.72;5008647;27;97890;-82
2023/12/22 05:08:51;;;;;;;7.97;1.90;;;;;;;5.55;54.72;97296.09;5026520;27;99175;-82
2023/12/22 05:11:16;;;;;;;7.93;2.40;;;;;;;5.57;54.94;97302.06;5008516;27;98055;-82
2023/12/22 05:13:42;;;;;;;13.20;2.43;;;;;;;5.41;55.14;97299.56;5025398;27;98043;-82
2023/12/22 05:16:08;;;;;;;11.67;2.40;;;;;;;5.45;55.33;97305.41;5007115;27;97920;-82
2023/12/22 05:18:34;;;;;;;9.80;2.20;;;;;;;5.55;54.80;97301.31;5024638;27;97998;-82
2023/12/22 05:20:59;;;;;;;9.07;1.90;;;;;;;5.52;55.26;97298.06;5027207;27;98053;-82
2023/12/22 05:23:25;;;;;;;12.97;2.73;;;;;;;5.59;55.18;97302.81;5026421;27;97539;-84
2023/12/22 05:25:51;;;;;;;9.23;2.30;;;;;;;5.40;55.39;97271.88;5018236;27;98088;-81
2023/12/22 05:28:16;;;;;;;11.53;2.40;;;;;;;5.49;55.43;97291.28;4998263;27;100919;-83
2023/12/22 05:30:42;;;;;;;13.53;2.63;;;;;;;5.41;56.01;97289.16;5025822;27;97383;-83
2023/12/22 05:33:07;;;;;;;11.00;3.13;;;;;;;5.41;55.66;97294.38;5021456;27;98013;-83
2023/12/22 05:35:33;;;;;;;9.13;2.43;;;;;;;5.22;56.11;97262.59;5006269;27;101806;-79
2023/12/22 05:37:58;;;;;;;11.10;2.22;;;;;;;5.31;55.70;97276.81;5041988;27;99238;-79
2023/12/22 05:40:24;;;;;;;10.90;2.40;;;;;;;5.44;55.90;97298.56;5041666;27;97786;-78
2023/12/22 05:42:49;;;;;;;11.70;2.47;;;;;;;5.47;56.07;97311.38;5021492;27;97516;-79
2023/12/22 05:45:15;;;;;;;12.30;2.40;;;;;;;5.54;56.64;97311.81;5024257;27;98275;-81
2023/12/22 05:47:40;;;;;;;14.10;2.60;;;;;;;5.27;56.66;97270.97;5021073;27;98062;-76
2023/12/22 05:50:07;;;;;;;9.93;2.80;;;;;;;5.37;57.14;97294.63;5002279;28;97435;-76
2023/12/22 05:52:33;;;;;;;9.10;2.40;;;;;;;5.39;57.68;97311.81;4999927;28;98595;-77
2023/12/22 05:54:58;;;;;;;9.47;2.43;;;;;;;5.28;57.48;97290.00;4996626;28;98092;-80
2023/12/22 05:57:27;;;;;;;9.97;2.30;;;;;;;5.42;57.00;97313.41;5002298;28;97999;-79
2023/12/22 05:59:52;;;;;;;15.67;2.70;;;;;;;5.41;57.04;97325.59;5019608;28;97311;-80
2023/12/22 06:02:18;;;;;;;11.13;2.30;;;;;;;5.33;57.34;97321.78;4987163;28;98346;-77
2023/12/22 06:04:43;;;;;;;13.00;2.77;;;;;;;5.12;57.85;97298.72;4985286;28;101812;-77
2023/12/22 06:07:10;;;;;;;9.60;2.47;;;;;;;5.43;57.65;97325.47;5002594;28;98016;-83
2023/12/22 06:09:36;;;;;;;10.13;2.30;;;;;;;5.34;57.66;97307.84;5000696;28;98274;-81
2023/12/22 06:12:01;;;;;;;8.90;2.20;;;;;;;5.23;57.52;97303.28;4999155;28;97172;-81
2023/12/22 06:14:27;;;;;;;10.00;2.80;;;;;;;5.40;57.64;97328.28;4992385;28;101015;-81
2023/12/22 06:16:53;;;;;;;12.63;2.17;;;;;;;5.40;57.89;97323.06;4998015;28;98650;-81
2023/12/22 06:19:19;;;;;;;10.70;2.23;;;;;;;5.40;57.66;97320.47;5000913;28;98404;-80
2023/12/22 06:21:44;;;;;;;12.53;2.57;;;;;;;5.43;57.38;97326.31;4982167;28;98095;-80
2023/12/22 06:24:10;;;;;;;12.50;2.50;;;;;;;5.15;58.18;97302.91;4983985;28;101700;-80
2023/12/22 06:26:36;;;;;;;11.90;2.33;;;;;;;5.33;58.27;97340.81;4984257;28;98319;-81
2023/12/22 06:29:03;;;;;;;13.00;3.27;;;;;;;5.27;58.47;97322.97;5004511;28;98558;-81
2023/12/22 06:31:28;;;;;;;9.23;2.43;;;;;;;6.79;67.43;97318.63;4998780;28;97702;-85
2023/12/22 06:33:54;;;;;;;12.67;2.80;;;;;;;6.29;58.11;97310.56;5000154;28;98665;-84
2023/12/22 06:36:23;;;;;;;11.43;2.80;;;;;;;6.05;57.33;97351.19;5001927;28;99551;-85
2023/12/22 06:38:54;;;;;;;8.83;2.10;;;;;;;5.76;57.49;97334.75;5001115;28;98664;-86
2023/12/22 06:41:20;;;;;;;9.90;3.05;;;;;;;5.77;57.96;97360.69;4983682;28;97688;-80
2023/12/22 06:43:45;;;;;;;12.10;2.53;;;;;;;5.63;58.55;97353.72;4999737;28;98538;-81
2023/12/22 06:46:15;;;;;;;9.15;2.22;;;;;;;5.61;58.93;97366.00;5000148;28;100955;-76
2023/12/22 06:48:41;;;;;;;10.10;2.03;;;;;;;5.45;58.87;97353.06;5002197;28;97729;-81
2023/12/22 06:51:06;;;;;;;9.95;2.45;;;;;;;5.38;59.34;97340.53;5038094;27;97420;-82
2023/12/22 06:53:32;;;;;;;7.90;2.40;;;;;;;5.33;59.53;97342.59;5009890;27;99340;-79
2023/12/22 06:55:57;;;;;;;7.87;2.57;;;;;;;5.34;59.71;97373.69;5041579;27;97919;-76
2023/12/22 06:58:25;;;;;;;9.20;1.87;;;;;;;5.31;59.78;97360.03;5009127;27;97775;-84
2023/12/22 07:00:51;;;;;;;6.23;2.13;;;;;;;5.33;59.88;97358.19;5027261;27;98056;-75
2023/12/22 07:03:19;;;;;;;9.50;2.50;;;;;;;5.20;59.79;97371.91;5006678;27;99691;-76
2023/12/22 07:05:44;;;;;;;6.07;2.30;;;;;;;5.38;59.36;97375.19;5043781;27;97363;-81
2023/12/22 07:08:10;;;;;;;6.47;2.10;;;;;;;5.31;59.62;97368.69;5025816;27;96806;-80
2023/12/22 07:10:36;;;;;;;9.43;2.47;;;;;;;5.17;59.47;97340.88;5023287;27;97217;-82
2023/12/22 07:13:01;;;;;;;6.83;1.77;;;;;;;5.18;59.74;97360.78;5018159;27;98191;-80
2023/12/22 07:15:28;;;;;;;8.73;2.00;;;;;;;5.29;59.75;97375.72;5008553;27;101177;-82
2023/12/22 07:17:53;;;;;;;10.20;1.87;;;;;;;4.98;60.20;97330.75;5004854;27;97367;-80
2023/12/22 07:20:19;;;;;;;10.47;2.90;;;;;;;5.22;59.92;97369.22;5041386;27;96895;-82
2023/12/22 07:22:45;;;;;;;11.70;2.33;;;;;;;5.19;60.44;97383.25;5022063;27;97679;-84
2023/12/22 07:25:11;;;;;;;12.47;2.23;;;;;;;5.14;59.97;97363.63;5040777;27;98346;-80
2023/12/22 07:27:36;;;;;;;11.23;2.73;;;;;;;5.18;60.20;97370.34;5038834;27;97357;-82
2023/12/22 07:30:02;;;;;;;5.40;1.60;;;;;;;5.30;60.11;97380.03;5006254;27;97896;-83
2023/12/22 07:32:28;;;;;;;7.33;1.67;;;;;;;5.19;60.28;97372.84;5000327;27;100905;-81
2023/12/22 07:34:54;;;;;;;6.27;1.67;;;;;;;5.43;60.47;97406.13;5013016;27;97656;-83
2023/12/22 07:37:20;;;;;;;12.17;2.23;;;;;;;5.48;60.56;97416.28;5019010;27;98553;-81
2023/12/22 07:39:46;;;;;;;7.63;2.27;;;;;;;5.46;60.67;97408.53;5003917;27;97637;-77
2023/12/22 07:42:11;;;;;;;5.97;1.73;;;;;;;5.38;60.88;97389.94;5020997;27;97374;-77
2023/12/22 07:44:37;;;;;;;10.88;1.90;;;;;;;5.39;61.30;97400.28;5016740;27;98092;-78
2023/12/22 07:47:03;;;;;;;8.63;1.57;;;;;;;5.38;61.67;97384.75;5015205;27;97805;-75
2023/12/22 07:49:28;;;;;;;9.17;1.80;;;;;;;5.56;61.58;97411.47;5012788;28;97380;-78
2023/12/22 07:51:54;;;;;;;9.33;1.83;;;;;;;5.50;61.49;97391.84;5001345;28;97762;-76
2023/12/22 07:54:19;;;;;;;5.87;1.90;;;;;;;5.35;61.62;97378.00;5003991;28;98825;-75
2023/12/22 07:56:45;;;;;;;7.77;1.70;;;;;;;5.31;61.99;97362.66;5005891;28;97899;-76
2023/12/22 07:59:10;;;;;;;5.60;1.80;;;;;;;5.30;61.91;97363.59;5005688;27;97353;-77
2023/12/22 08:01:36;;;;;;;4.67;1.73;;;;;;;5.51;61.65;97390.06;4999453;28;97583;-82
2023/12/22 08:04:01;;;;;;;9.83;2.40;;;;;;;5.39;61.51;97355.22;4993882;28;100890;-81
2023/12/22 08:06:27;;;;;;;6.57;1.97;;;;;;;5.56;61.24;97396.69;5000691;28;99402;-75
2023/12/22 08:08:54;;;;;;;8.18;1.80;;;;;;;5.70;60.71;97405.41;5005882;28;98802;-75
2023/12/22 08:11:20;;;;;;;12.30;2.23;;;;;;;5.84;60.50;97400.19;5001349;28;98964;-84
2023/12/22 08:13:45;;;;;;;6.00;2.00;;;;;;;5.98;59.83;97394.19;5006419;28;98459;-82
2023/12/22 08:16:11;;;;;;;9.63;2.87;;;;;;;6.01;58.95;97400.03;4986032;28;98606;-82
2023/12/22 08:18:36;;;;;;;9.63;3.00;;;;;;;5.65;59.54;97393.50;5007921;28;98070;-82
2023/12/22 08:21:02;;;;;;;12.07;1.95;;;;;;;5.59;60.01;97393.88;4999800;28;98733;-81
2023/12/22 08:23:28;;;;;;;8.80;1.83;;;;;;;5.71;59.49;97430.53;5005667;28;98019;-82
2023/12/22 08:25:54;;;;;;;10.02;2.92;;;;;;;5.63;59.14;97405.78;4989801;28;98233;-82
2023/12/22 08:28:20;;;;;;;7.20;2.17;;;;;;;5.73;59.11;97406.06;5006936;28;97875;-82
2023/12/22 08:30:45;;;;;;;7.07;2.08;;;;;;;5.79;59.21;97400.50;4983884;28;98470;-82
2023/12/22 08:33:10;;;;;;;8.50;2.60;;;;;;;5.66;58.42;97402.97;5004141;28;97712;-82
2023/12/22 08:35:36;;;;;;;7.40;2.30;;;;;;;5.82;58.68;97417.69;5007208;28;98554;-82
2023/12/22 08:38:02;;;;;;;10.40;3.25;;;;;;;6.70;61.56;97428.72;5004533;28;98276;-75
2023/12/22 08:40:27;;;;;;;7.03;2.00;;;;;;;7.24;55.80;97406.03;5009861;28;97364;-81
2023/12/22 08:42:59;;;;;;;7.13;2.15;;;;;;;7.02;54.79;97377.91;5008894;28;101392;-80
2023/12/22 08:45:28;;;;;;;6.40;1.58;;;;;;;6.64;55.40;97410.88;5006546;28;97313;-81
2023/12/22 08:47:55;;;;;;;10.18;2.10;;;;;;;6.31;55.76;97370.38;4990073;28;98094;-80
2023/12/22 08:50:21;;;;;;;9.75;2.03;;;;;;;6.05;56.58;97398.91;5001515;27;98145;-81
2023/12/22 08:52:46;;;;;;;10.48;1.85;;;;;;;5.87;56.68;97400.84;5025296;27;98037;-81
2023/12/22 08:55:12;;;;;;;9.20;2.40;;;;;;;5.74;57.25;97373.91;5023957;27;97877;-80
2023/12/22 08:57:37;;;;;;;10.43;2.20;;;;;;;5.64;57.73;97398.78;5040711;27;98021;-82
2023/12/22 09:00:03;;;;;;;8.68;2.65;;;;;;;5.59;58.29;97437.28;5024068;27;101468;-82
2023/12/22 09:02:29;;;;;;;10.27;2.07;;;;;;;5.38;59.37;97435.03;5020346;27;99466;-81
2023/12/22 09:04:54;;;;;;;9.05;2.35;;;;;;;5.19;61.05;97424.84;5006363;27;97007;-82
2023/12/22 09:07:22;;;;;;;6.70;1.97;;;;;;;5.06;62.75;97416.09;5041155;27;96870;-82
2023/12/22 09:09:47;;;;;;;6.93;1.43;;;;;;;4.95;62.65;97428.88;5042114;27;98452;-81
2023/12/22 09:12:13;;;;;;;6.05;1.13;;;;;;;5.06;61.96;97426.50;5041306;27;98496;-82
2023/12/22 09:14:38;;;;;;;4.57;0.93;;;;;;;5.05;61.31;97429.19;5042373;27;97328;-82
2023/12/22 09:17:04;;;;;;;2.60;0.90;;;;;;;5.51;59.81;97426.50;5020500;27;98760;-81
2023/12/22 09:19:33;;;;;;;3.70;1.02;;;;;;;6.17;58.26;97439.00;5006340;27;101594;-82
2023/12/22 09:21:58;;;;;;;1.92;0.70;;;;;;;6.75;57.01;97419.69;5006535;27;98254;-83
2023/12/22 09:24:24;;;;;;;2.28;0.90;;;;;;;7.35;56.34;97426.19;5006220;27;97585;-82
2023/12/22 09:26:50;;;;;;;2.15;1.00;;;;;;;7.48;55.71;97415.78;5003315;27;97804;-82
2023/12/22 09:29:17;;;;;;;3.78;1.13;;;;;;;7.71;55.50;97420.25;5000844;27;101713;-81
2023/12/22 09:31:42;;;;;;;3.78;1.08;;;;;;;7.97;55.35;97437.69;5005159;27;97922;-74
2023/12/22 09:34:08;;;;;;;2.92;1.05;;;;;;;8.02;55.07;97438.19;5019751;27;97773;-75
2023/12/22 09:36:33;;;;;;;3.15;0.93;;;;;;;7.94;54.74;97416.06;5014913;27;97761;-76
2023/12/22 09:38:59;;;;;;;4.47;1.17;;;;;;;8.00;54.66;97425.25;5037597;27;97303;-74
2023/12/22 09:41:24;;;;;;;2.53;1.30;;;;;;;7.84;54.55;97425.47;5040309;27;98199;-76
2023/12/22 09:43:52;;;;;;;2.78;1.23;;;;;;;7.60;55.35;97403.66;5017080;27;97338;-78
2023/12/22 09:46:20;;;;;;;4.75;1.65;;;;;;;7.33;55.47;97382.84;5017868;27;96929;-74
2023/12/22 09:48:46;;;;;;;4.55;1.67;;;;;;;7.49;55.91;97373.88;5002178;28;99459;-74
2023/12/22 09:51:14;;;;;;;5.68;1.65;;;;;;;7.56;55.56;97391.72;5012269;27;97383;-73
2023/12/22 09:53:41;;;;;;;4.63;1.60;;;;;;;7.68;55.67;97383.91;5010779;27;97163;-74
2023/12/22 09:56:07;;;;;;;4.78;1.48;;;;;;;7.51;55.51;97376.41;5018670;27;97239;-74
2023/12/22 09:58:35;;;;;;;5.30;1.80;;;;;;;7.63;55.64;97400.84;5022182;27;97440;-74
2023/12/22 10:01:05;;;;;;;5.75;1.85;;;;;;;7.50;55.82;97387.75;5021137;27;97438;-74
2023/12/22 10:03:33;;;;;;;5.25;1.88;;;;;;;6.80;56.43;97365.44;5021350;27;97364;-75
2023/12/22 10:05:59;;;;;;;7.65;1.60;;;;;;;6.80;56.71;97375.03;5044288;27;97642;-77
2023/12/22 10:08:26;;;;;;;7.35;1.83;;;;;;;6.82;56.17;97411.47;5043328;27;98064;-74
2023/12/22 10:10:52;;;;;;;3.97;1.70;;;;;;;6.67;56.72;97402.88;5025543;27;97478;-76
2023/12/22 10:13:18;;;;;;;8.50;1.75;;;;;;;6.89;56.43;97402.28;5042416;27;97402;-76
2023/12/22 10:15:45;;;;;;;8.90;1.92;;;;;;;7.10;55.35;97400.03;5008802;27;97891;-74
2023/12/22 10:18:10;;;;;;;7.10;1.83;;;;;;;7.12;54.83;97379.91;5021823;27;98494;-78
2023/12/22 10:20:36;;;;;;;7.43;1.75;;;;;;;7.00;54.80;97376.34;5026467;27;98224;-77
2023/12/22 10:23:02;;;;;;;13.90;2.63;;;;;;;6.88;54.67;97362.34;5025060;27;98384;-73
2023/12/22 10:25:32;;;;;;;10.45;2.70;;;;;;;7.29;53.92;97373.56;5007554;27;97223;-75
2023/12/22 10:27:58;;;;;;;7.13;1.80;;;;;;;7.02;53.43;97377.91;5043994;27;98259;-81
2023/12/22 10:30:26;;;;;;;6.60;1.98;;;;;;;7.05;53.85;97376.88;5025388;27;98083;-76
2023/12/22 10:32:51;;;;;;;7.50;1.92;;;;;;;7.39;52.90;97380.69;5038524;27;97961;-77
2023/12/22 10:35:17;;;;;;;7.05;1.75;;;;;;;7.52;52.33;97372.00;5009900;27;97254;-76
2023/12/22 10:37:43;;;;;;;8.25;1.92;;;;;;;7.66;51.90;97398.00;5025711;27;100087;-75
2023/12/22 10:40:09;;;;;;;6.88;2.28;;;;;;;7.55;51.84;97393.50;5018370;27;98915;-74
2023/12/22 10:42:35;;;;;;;9.32;2.42;;;;;;;7.80;51.81;97417.97;5024573;27;98206;-78
2023/12/22 10:45:01;;;;;;;5.65;1.60;;;;;;;7.80;50.60;97441.47;5025988;27;96879;-78
2023/12/22 10:47:28;;;;;;;7.32;1.60;;;;;;;7.75;50.71;97417.44;5041689;27;97598;-76
2023/12/22 10:49:53;;;;;;;4.53;1.85;;;;;;;7.87;50.02;97434.88;5020344;27;98494;-77
2023/12/22 10:52:20;;;;;;;4.32;1.60;;;;;;;7.90;49.82;97401.53;5043721;27;97515;-76
2023/12/22 10:54:46;;;;;;;5.22;1.40;;;;;;;7.99;50.26;97430.56;5022356;27;98105;-78
2023/12/22 10:57:12;;;;;;;8.20;1.88;;;;;;;7.88;49.93;97432.16;5020508;27;97396;-76
2023/12/22 10:59:47;;;;;;;3.10;1.30;;;;;;;7.94;50.29;97431.75;5023962;27;98861;-76
2023/12/22 11:02:20;;;;;;;3.50;1.40;;;;;;;8.12;50.43;97420.97;5003552;27;96931;-75
2023/12/22 11:05:02;;;;;;;7.38;1.75;;;;;;;7.83;49.86;97451.72;5019789;27;98746;-78
2023/12/22 11:07:28;;;;;;;6.03;1.77;;;;;;;7.54;50.69;97433.63;5039791;27;97842;-79
2023/12/22 11:09:56;;;;;;;3.22;1.20;;;;;;;7.33;51.21;97454.16;5022861;27;97810;-77
2023/12/22 11:12:24;;;;;;;4.03;1.40;;;;;;;7.13;52.35;97431.16;5043047;27;98199;-75
2023/12/22 11:14:52;;;;;;;3.70;1.33;;;;;;;6.92;52.90;97442.06;5022965;27;97330;-77
2023/12/22 11:17:22;;;;;;;5.00;1.50;;;;;;;6.79;53.66;97467.25;5021894;27;99001;-77
2023/12/22 11:19:54;;;;;;;3.67;1.30;;;;;;;6.66;54.63;97466.34;5021936;27;98045;-75
2023/12/22 11:22:21;;;;;;;4.22;1.38;;;;;;;6.58;54.25;97459.84;5022930;27;97444;-76
2023/12/22 11:24:48;;;;;;;9.45;1.67;;;;;;;6.34;54.51;97417.09;5042518;27;98280;-77
2023/12/22 11:27:17;;;;;;;6.95;1.67;;;;;;;6.55;54.28;97456.63;4991012;27;100691;-76
2023/12/22 11:29:49;;;;;;;6.95;2.33;;;;;;;6.40;54.23;97415.84;5022316;27;97902;-76
2023/12/22 11:32:18;;;;;;;6.70;1.90;;;;;;;6.62;54.17;97442.25;5005398;27;98489;-82